Time;durP1;ratioP1;P1;durP2;ratioP2;P2;SDS_P1;SDS_P2;PMS_P1;PMS_P2;Temp;Humidity;BMP_temperature;BMP_pressure;BME280_temperature;BME280_humidity;BME280_pressure;Samples;Min_cycle;Max_cycle;Signal;HPM_P1;HPM_P2
2022/07/07 00:00:14;;;;;;;10.45;2.30;;;41.10;27.90;;;;;;4950714;29;20108;-63
2022/07/07 00:02:40;;;;;;;9.15;2.25;;;40.80;27.80;;;;;;4949848;28;20141;-61
2022/07/07 00:05:06;;;;;;;18.95;2.72;;;41.00;28.00;;;;;;4949934;29;20388;-62
2022/07/07 00:07:33;;;;;;;13.75;2.40;;;41.00;27.80;;;;;;4966246;28;20055;-62
2022/07/07 00:10:00;;;;;;;24.55;2.83;;;41.00;28.60;;;;;;4951043;29;20076;-63
2022/07/07 00:12:26;;;;;;;8.88;2.33;;;41.10;28.70;;;;;;4951404;28;20051;-61
2022/07/07 00:14:53;;;;;;;11.65;2.38;;;40.90;28.00;;;;;;4951843;28;20045;-61
2022/07/07 00:17:20;;;;;;;9.15;2.42;;;41.00;28.20;;;;;;4950534;29;20167;-60
2022/07/07 00:19:46;;;;;;;12.02;2.65;;;40.90;27.80;;;;;;4966869;28;20106;-62
2022/07/07 00:22:14;;;;;;;9.10;2.17;;;40.80;27.70;;;;;;4950827;28;20055;-63
2022/07/07 00:24:40;;;;;;;15.75;2.70;;;40.80;28.00;;;;;;4935177;29;20079;-62
2022/07/07 00:27:07;;;;;;;15.05;2.30;;;40.80;27.70;;;;;;4950203;28;20057;-63
2022/07/07 00:29:33;;;;;;;9.65;2.35;;;40.70;27.60;;;;;;4950664;29;20049;-62
2022/07/07 00:32:21;;;;;;;15.07;2.78;;;40.50;28.20;;;;;;4971880;28;20104;-66
2022/07/07 00:34:47;;;;;;;12.40;2.20;;;40.50;28.50;;;;;;4962149;28;20548;-66
2022/07/07 00:37:13;;;;;;;20.60;2.55;;;40.30;27.80;;;;;;4935861;28;20078;-63
2022/07/07 00:39:40;;;;;;;9.00;2.00;;;40.20;27.70;;;;;;4948751;28;20127;-68
2022/07/07 00:42:06;;;;;;;12.85;2.05;;;40.20;28.40;;;;;;4934175;28;20479;-68
2022/07/07 00:44:33;;;;;;;20.80;2.15;;;40.30;28.10;;;;;;4953568;28;20138;-67
2022/07/07 00:46:59;;;;;;;11.48;2.05;;;40.40;28.00;;;;;;4937024;28;20076;-67
2022/07/07 00:49:26;;;;;;;13.50;2.58;;;40.50;28.30;;;;;;4936859;28;20586;-66
2022/07/07 00:51:52;;;;;;;22.45;2.63;;;40.30;27.70;;;;;;4939746;28;20052;-70
2022/07/07 00:54:19;;;;;;;16.48;2.70;;;40.20;27.50;;;;;;4939593;28;20442;-70
2022/07/07 00:56:45;;;;;;;16.52;2.13;;;40.20;27.20;;;;;;4941106;28;20058;-67
2022/07/07 00:59:13;;;;;;;17.00;2.42;;;40.10;27.20;;;;;;4951776;28;20114;-68
2022/07/07 01:01:41;;;;;;;11.63;2.38;;;40.10;27.30;;;;;;4938276;28;20083;-67
2022/07/07 01:04:12;;;;;;;16.45;2.47;;;40.10;27.70;;;;;;4947894;28;20134;-68
2022/07/07 01:06:40;;;;;;;13.13;2.05;;;40.10;27.10;;;;;;4937237;28;20457;-69
2022/07/07 01:09:07;;;;;;;20.58;2.15;;;39.90;26.90;;;;;;4951487;28;20058;-68
2022/07/07 01:11:56;;;;;;;8.13;1.65;;;39.90;27.30;;;;;;4935300;29;20080;-68
2022/07/07 01:14:24;;;;;;;15.57;2.22;;;39.70;26.70;;;;;;4949291;28;20052;-69
2022/07/07 01:16:52;;;;;;;14.23;2.50;;;39.70;27.10;;;;;;4963481;28;20086;-67
2022/07/07 01:19:20;;;;;;;11.10;2.45;;;39.60;27.20;;;;;;4950639;28;20048;-65
2022/07/07 01:22:03;;;;;;;11.77;2.33;;;39.50;26.70;;;;;;4953580;28;20080;-67
2022/07/07 01:24:30;;;;;;;11.27;1.95;;;39.50;26.80;;;;;;4952793;29;20480;-62
2022/07/07 01:27:10;;;;;;;12.50;1.77;;;39.40;26.50;;;;;;4951529;28;20052;-68
2022/07/07 01:29:41;;;;;;;15.18;2.17;;;39.30;27.40;;;;;;4953405;29;20123;-66
2022/07/07 01:32:08;;;;;;;9.43;2.08;;;39.20;26.70;;;;;;4954292;29;20064;-67
2022/07/07 01:34:39;;;;;;;14.65;2.63;;;39.30;26.70;;;;;;4953184;29;20509;-67
2022/07/07 01:37:06;;;;;;;10.25;2.20;;;39.20;26.70;;;;;;4937124;29;20069;-67
2022/07/07 01:39:34;;;;;;;14.05;2.30;;;39.10;26.50;;;;;;4953645;29;20144;-66
2022/07/07 01:42:01;;;;;;;16.50;1.88;;;39.00;26.30;;;;;;4954555;29;20059;-69
2022/07/07 01:44:31;;;;;;;13.05;1.92;;;38.90;26.30;;;;;;4953459;28;20068;-67
2022/07/07 01:46:57;;;;;;;12.23;2.20;;;38.80;26.40;;;;;;4951231;28;20182;-70
2022/07/07 01:49:25;;;;;;;11.25;2.03;;;38.80;25.90;;;;;;4936512;29;20068;-65
2022/07/07 01:51:51;;;;;;;15.73;2.00;;;38.80;25.80;;;;;;4952802;28;20155;-68
2022/07/07 01:54:18;;;;;;;13.57;2.30;;;38.70;26.00;;;;;;4954075;28;20341;-67
2022/07/07 01:56:45;;;;;;;11.50;2.17;;;38.60;25.90;;;;;;4951339;28;20087;-67
2022/07/07 01:59:13;;;;;;;9.75;2.40;;;38.60;26.70;;;;;;4954041;29;20158;-66
2022/07/07 02:01:40;;;;;;;11.55;1.90;;;38.50;25.50;;;;;;4937454;29;20059;-66
2022/07/07 02:04:06;;;;;;;9.35;1.88;;;38.40;25.70;;;;;;4952692;28;20421;-68
2022/07/07 02:06:33;;;;;;;21.27;2.45;;;38.30;25.60;;;;;;4952587;28;20062;-65
2022/07/07 02:09:00;;;;;;;21.92;2.38;;;38.30;25.70;;;;;;4953372;28;20086;-63
2022/07/07 02:11:28;;;;;;;13.55;2.17;;;38.10;25.80;;;;;;4953348;28;20063;-65
2022/07/07 02:13:54;;;;;;;13.18;2.10;;;38.00;25.80;;;;;;4952691;29;20513;-65
2022/07/07 02:16:23;;;;;;;16.83;2.30;;;38.00;26.20;;;;;;4953365;28;20471;-66
2022/07/07 02:18:53;;;;;;;18.10;2.33;;;37.90;26.00;;;;;;4953195;29;20441;-66
2022/07/07 02:21:20;;;;;;;14.63;2.28;;;37.90;26.00;;;;;;4952644;28;20099;-65
2022/07/07 02:23:48;;;;;;;18.65;2.17;;;37.70;25.80;;;;;;4953320;28;20069;-65
2022/07/07 02:26:15;;;;;;;18.08;2.70;;;37.60;25.80;;;;;;4936163;29;20130;-68
2022/07/07 02:28:43;;;;;;;15.75;2.08;;;37.50;25.70;;;;;;4953165;28;20073;-66
2022/07/07 02:31:09;;;;;;;11.73;1.98;;;37.50;25.80;;;;;;4951972;28;20068;-67
2022/07/07 02:33:37;;;;;;;15.63;2.65;;;37.40;25.70;;;;;;4952295;28;20540;-67
2022/07/07 02:36:05;;;;;;;17.15;1.70;;;37.30;25.90;;;;;;4951926;28;20077;-67
2022/07/07 02:38:32;;;;;;;20.70;2.38;;;37.30;26.20;;;;;;4952859;29;20478;-65
2022/07/07 02:40:59;;;;;;;28.17;2.55;;;37.10;26.40;;;;;;4953436;28;20100;-65
2022/07/07 02:43:25;;;;;;;31.92;2.75;;;37.10;26.90;;;;;;4952469;29;20118;-64
2022/07/07 02:45:52;;;;;;;20.52;2.60;;;37.00;27.10;;;;;;4952193;28;20066;-67
2022/07/07 02:48:21;;;;;;;17.80;2.42;;;37.00;27.30;;;;;;4951791;28;20491;-67
2022/07/07 02:50:48;;;;;;;24.70;2.55;;;36.90;27.50;;;;;;4935668;29;20070;-67
2022/07/07 02:53:16;;;;;;;13.73;2.67;;;36.80;27.60;;;;;;4952071;29;20124;-67
2022/07/07 02:55:43;;;;;;;18.38;2.88;;;36.70;27.60;;;;;;4951985;29;20067;-67
2022/07/07 02:58:22;;;;;;;16.73;2.60;;;36.60;27.60;;;;;;4947743;29;20180;-70
2022/07/07 03:00:50;;;;;;;13.45;2.22;;;36.60;27.80;;;;;;4952078;29;20570;-67
2022/07/07 03:03:17;;;;;;;22.48;3.08;;;36.50;27.80;;;;;;4936501;29;20074;-65
2022/07/07 03:05:43;;;;;;;23.73;3.25;;;36.40;27.90;;;;;;4951688;28;20073;-67
2022/07/07 03:08:10;;;;;;;14.57;2.60;;;36.40;27.90;;;;;;4950915;28;20086;-69
2022/07/07 03:10:36;;;;;;;27.83;3.33;;;36.30;27.80;;;;;;4952731;29;20102;-66
2022/07/07 03:13:03;;;;;;;22.75;2.72;;;36.20;27.60;;;;;;4951473;28;20622;-66
2022/07/07 03:15:29;;;;;;;15.10;2.58;;;36.20;27.50;;;;;;4951529;29;20075;-66
2022/07/07 03:17:56;;;;;;;17.33;2.42;;;36.10;27.30;;;;;;4951357;28;20147;-64
2022/07/07 03:20:22;;;;;;;22.77;2.67;;;36.00;27.20;;;;;;4935568;29;20069;-67
2022/07/07 03:22:49;;;;;;;23.80;3.20;;;36.00;27.40;;;;;;4950847;29;20110;-61
2022/07/07 03:25:15;;;;;;;17.35;2.88;;;35.90;27.30;;;;;;4953315;28;20109;-61
2022/07/07 03:27:42;;;;;;;27.35;3.63;;;35.80;27.30;;;;;;4952194;28;20089;-61
2022/07/07 03:30:09;;;;;;;22.38;3.25;;;35.70;27.30;;;;;;4950977;28;20071;-61
2022/07/07 03:32:37;;;;;;;30.95;3.22;;;35.70;27.40;;;;;;4951636;28;20149;-62
2022/07/07 03:35:03;;;;;;;26.90;3.97;;;35.60;27.50;;;;;;4950650;28;20121;-61
2022/07/07 03:37:32;;;;;;;24.45;3.08;;;35.60;27.70;;;;;;4950965;29;20093;-62
2022/07/07 03:39:58;;;;;;;29.17;3.55;;;35.50;27.90;;;;;;4951637;28;20121;-62
2022/07/07 03:42:25;;;;;;;20.25;3.00;;;35.40;28.60;;;;;;4952021;28;20075;-60
2022/07/07 03:44:51;;;;;;;20.20;2.58;;;35.30;28.30;;;;;;4950382;28;20124;-62
2022/07/07 03:47:17;;;;;;;23.10;3.78;;;35.20;28.50;;;;;;4950625;28;20075;-63
2022/07/07 03:49:44;;;;;;;26.15;3.47;;;35.20;28.80;;;;;;4950382;28;20521;-61
2022/07/07 03:52:10;;;;;;;34.80;3.92;;;35.10;28.90;;;;;;4950054;29;20851;-62
2022/07/07 03:54:36;;;;;;;20.70;3.35;;;35.00;29.20;;;;;;4949895;28;20177;-64
2022/07/07 03:57:03;;;;;;;21.05;3.45;;;35.00;29.50;;;;;;4951513;29;20560;-61
2022/07/07 03:59:29;;;;;;;35.08;4.10;;;34.90;29.70;;;;;;4949141;29;20074;-61
2022/07/07 04:01:56;;;;;;;38.45;4.00;;;34.80;30.00;;;;;;4950621;29;20079;-61
2022/07/07 04:04:22;;;;;;;24.20;3.53;;;34.70;30.10;;;;;;4950890;28;20105;-62
2022/07/07 04:06:48;;;;;;;15.65;2.70;;;34.70;30.50;;;;;;4950437;28;20218;-62
2022/07/07 04:09:15;;;;;;;26.52;3.20;;;34.60;30.80;;;;;;4950847;28;20069;-60
2022/07/07 04:11:41;;;;;;;19.10;2.67;;;34.60;30.90;;;;;;4950799;28;20086;-62
2022/07/07 04:14:07;;;;;;;25.42;3.53;;;34.60;31.10;;;;;;4950273;28;20082;-62
2022/07/07 04:16:34;;;;;;;21.83;3.45;;;34.50;31.30;;;;;;4951120;28;20095;-63
2022/07/07 04:19:00;;;;;;;22.25;3.10;;;34.40;31.30;;;;;;4949377;29;20161;-63
2022/07/07 04:21:27;;;;;;;29.75;3.55;;;34.40;31.40;;;;;;4950227;28;20067;-61
2022/07/07 04:23:54;;;;;;;37.67;10.20;;;34.30;31.50;;;;;;4951541;29;20087;-62
2022/07/07 04:26:20;;;;;;;70.15;26.50;;;34.30;31.30;;;;;;4950426;28;20094;-61
2022/07/07 04:28:47;;;;;;;85.70;42.83;;;34.20;31.00;;;;;;4934374;29;20158;-62
2022/07/07 04:31:13;;;;;;;95.63;52.55;;;34.20;31.00;;;;;;4950677;28;20118;-62
2022/07/07 04:33:39;;;;;;;94.22;48.95;;;34.20;31.30;;;;;;4949210;28;20440;-64
2022/07/07 04:36:06;;;;;;;75.65;42.35;;;34.10;31.10;;;;;;4948698;29;20541;-62
2022/07/07 04:38:32;;;;;;;63.30;31.30;;;34.10;31.10;;;;;;4951614;29;20098;-62
2022/07/07 04:40:59;;;;;;;33.17;16.70;;;33.90;31.00;;;;;;4951718;28;20484;-62
2022/07/07 04:43:25;;;;;;;40.55;16.52;;;33.90;30.60;;;;;;4951199;28;20079;-64
2022/07/07 04:45:52;;;;;;;23.48;7.65;;;33.90;30.70;;;;;;4950518;28;20228;-62
2022/07/07 04:48:18;;;;;;;23.02;5.35;;;33.90;30.00;;;;;;4949986;28;20074;-62
2022/07/07 04:50:45;;;;;;;18.55;4.22;;;33.80;30.00;;;;;;4950356;28;20212;-63
2022/07/07 04:53:11;;;;;;;17.67;3.75;;;33.80;29.70;;;;;;4949513;28;20108;-61
2022/07/07 04:55:37;;;;;;;27.23;5.40;;;33.80;29.40;;;;;;4934053;29;20086;-61
2022/07/07 04:58:04;;;;;;;19.80;5.63;;;33.80;29.50;;;;;;4951079;28;20090;-63
2022/07/07 05:00:30;;;;;;;25.83;6.43;;;33.80;30.00;;;;;;4948390;29;20111;-61
2022/07/07 05:02:57;;;;;;;20.92;5.32;;;33.60;30.20;;;;;;4934280;29;20083;-61
2022/07/07 05:05:23;;;;;;;20.40;4.93;;;33.60;30.30;;;;;;4950288;28;20075;-64
2022/07/07 05:07:50;;;;;;;11.57;4.35;;;33.60;30.40;;;;;;4949878;29;20075;-64
2022/07/07 05:10:16;;;;;;;16.58;3.80;;;33.50;30.90;;;;;;4950876;28;20074;-62
2022/07/07 05:12:43;;;;;;;19.48;4.75;;;33.50;31.30;;;;;;4951210;29;20083;-62
2022/07/07 05:15:10;;;;;;;25.50;5.25;;;33.40;31.50;;;;;;4950147;29;20098;-63
2022/07/07 05:17:36;;;;;;;29.77;5.93;;;33.30;32.10;;;;;;4950237;28;20114;-62
2022/07/07 05:20:04;;;;;;;31.50;5.88;;;33.30;32.50;;;;;;4949952;28;20518;-61
2022/07/07 05:22:31;;;;;;;28.48;5.95;;;33.20;32.60;;;;;;4933743;29;20537;-62
2022/07/07 05:24:57;;;;;;;32.03;5.03;;;33.30;32.90;;;;;;4950612;28;20083;-63
2022/07/07 05:27:23;;;;;;;39.65;4.90;;;33.20;33.50;;;;;;4949908;28;20166;-62
2022/07/07 05:29:50;;;;;;;41.85;5.38;;;33.10;33.70;;;;;;4949657;28;20620;-61
2022/07/07 05:32:16;;;;;;;44.15;5.63;;;33.10;33.70;;;;;;4950797;28;20083;-61
2022/07/07 05:34:42;;;;;;;38.67;5.10;;;33.00;33.80;;;;;;4949544;28;20187;-63
2022/07/07 05:37:09;;;;;;;28.75;5.38;;;33.00;33.50;;;;;;4948785;28;20093;-62
2022/07/07 05:39:35;;;;;;;37.22;6.18;;;33.00;33.70;;;;;;4932590;29;20138;-62
2022/07/07 05:42:04;;;;;;;37.13;4.47;;;32.90;33.70;;;;;;4949684;28;20562;-65
2022/07/07 05:44:30;;;;;;;33.30;4.63;;;32.90;33.90;;;;;;4948723;28;20077;-65
2022/07/07 05:46:56;;;;;;;22.15;4.93;;;32.80;34.40;;;;;;4931149;29;20134;-65
2022/07/07 05:49:23;;;;;;;27.35;4.88;;;32.80;34.50;;;;;;4950069;28;20094;-63
2022/07/07 05:51:50;;;;;;;25.38;5.07;;;32.80;34.20;;;;;;4949694;29;20075;-62
2022/07/07 05:54:16;;;;;;;27.77;5.10;;;32.80;34.20;;;;;;4949689;29;20097;-65
2022/07/07 05:56:42;;;;;;;27.30;4.50;;;32.70;34.70;;;;;;4949948;29;20126;-61
2022/07/07 05:59:09;;;;;;;22.73;4.97;;;32.70;35.30;;;;;;4942740;28;20079;-58
2022/07/07 06:01:35;;;;;;;33.35;5.50;;;32.60;35.10;;;;;;4946186;29;20599;-62
2022/07/07 06:04:02;;;;;;;26.20;4.35;;;32.60;34.70;;;;;;4948008;28;20078;-64
2022/07/07 06:06:28;;;;;;;25.30;5.13;;;32.60;34.60;;;;;;4952131;29;20177;-62
2022/07/07 06:08:54;;;;;;;25.52;4.82;;;32.60;35.80;;;;;;4951275;28;20085;-61
2022/07/07 06:11:21;;;;;;;32.20;5.07;;;32.50;36.30;;;;;;4952518;29;20071;-60
2022/07/07 06:13:47;;;;;;;37.22;4.45;;;32.50;36.30;;;;;;4950863;29;20576;-62
2022/07/07 06:16:13;;;;;;;34.00;4.60;;;32.40;36.30;;;;;;4935487;29;20229;-61
2022/07/07 06:18:40;;;;;;;29.05;3.88;;;32.40;36.60;;;;;;4951079;29;20081;-61
2022/07/07 06:21:06;;;;;;;25.58;3.92;;;32.40;37.10;;;;;;4951771;28;20229;-61
2022/07/07 06:23:32;;;;;;;28.02;4.10;;;32.30;38.10;;;;;;4954975;29;20082;-61
2022/07/07 06:26:02;;;;;;;19.85;4.00;;;32.20;38.50;;;;;;4951519;28;20071;-62
2022/07/07 06:28:29;;;;;;;16.42;3.08;;;32.30;38.70;;;;;;4951438;29;20546;-61
2022/07/07 06:30:56;;;;;;;18.65;2.97;;;32.20;38.70;;;;;;4950649;29;20430;-62
2022/07/07 06:33:22;;;;;;;22.67;3.40;;;32.10;39.00;;;;;;4950915;28;20447;-63
2022/07/07 06:35:49;;;;;;;21.40;3.95;;;32.10;39.40;;;;;;4951761;29;20086;-62
2022/07/07 06:38:15;;;;;;;19.75;3.63;;;32.00;39.70;;;;;;4952090;28;20091;-62
2022/07/07 06:40:41;;;;;;;27.67;5.60;;;32.00;39.90;;;;;;4935880;29;20086;-62
2022/07/07 06:43:08;;;;;;;19.40;5.40;;;31.90;40.50;;;;;;4920129;29;20074;-62
2022/07/07 06:45:34;;;;;;;22.15;4.78;;;31.90;40.90;;;;;;4935078;29;20169;-64
2022/07/07 06:48:00;;;;;;;14.15;4.10;;;31.80;41.30;;;;;;4949976;29;20592;-64
2022/07/07 06:50:27;;;;;;;28.73;3.38;;;31.80;42.00;;;;;;4949782;28;20079;-61
2022/07/07 06:52:53;;;;;;;16.35;3.15;;;31.70;42.60;;;;;;4952541;29;20094;-62
2022/07/07 06:55:20;;;;;;;15.52;2.75;;;31.70;43.80;;;;;;4950952;29;20102;-61
2022/07/07 06:57:46;;;;;;;14.18;2.50;;;31.60;44.10;;;;;;4950844;28;20094;-62
2022/07/07 07:00:13;;;;;;;15.50;2.63;;;31.50;44.60;;;;;;4949403;28;20112;-61
2022/07/07 07:02:46;;;;;;;10.45;2.83;;;31.40;44.80;;;;;;4949439;29;20102;-61
2022/07/07 07:05:13;;;;;;;14.55;2.60;;;31.40;45.00;;;;;;4950873;29;20142;-62
2022/07/07 07:07:39;;;;;;;15.07;2.30;;;31.40;45.10;;;;;;4918985;29;20086;-62
2022/07/07 07:10:06;;;;;;;8.88;2.00;;;31.30;45.40;;;;;;4950028;29;20162;-62
2022/07/07 07:12:33;;;;;;;11.20;2.00;;;31.30;45.80;;;;;;4951433;28;20192;-62
2022/07/07 07:14:59;;;;;;;11.73;1.70;;;31.30;46.30;;;;;;4948483;28;20083;-63
2022/07/07 07:17:25;;;;;;;10.07;1.98;;;31.30;46.30;;;;;;4949710;28;20145;-63
2022/07/07 07:19:52;;;;;;;8.65;1.83;;;31.30;46.70;;;;;;4951125;29;20091;-64
2022/07/07 07:22:19;;;;;;;7.65;1.58;;;31.20;47.20;;;;;;4934240;29;20102;-62
2022/07/07 07:24:45;;;;;;;6.55;1.88;;;31.10;47.60;;;;;;4950380;28;20072;-62
2022/07/07 07:27:12;;;;;;;13.70;1.40;;;31.00;47.80;;;;;;4949529;29;20537;-62
2022/07/07 07:29:38;;;;;;;5.75;1.83;;;31.10;47.90;;;;;;4948654;28;20097;-62
2022/07/07 07:32:05;;;;;;;6.78;1.80;;;31.10;48.00;;;;;;4949408;28;20133;-63
2022/07/07 07:34:31;;;;;;;15.02;2.78;;;31.00;48.40;;;;;;4949656;29;20083;-59
2022/07/07 07:36:58;;;;;;;9.25;3.05;;;30.90;48.70;;;;;;4966123;28;20465;-61
2022/07/07 07:39:24;;;;;;;14.85;3.00;;;30.80;49.00;;;;;;4950352;29;20457;-62
2022/07/07 07:41:50;;;;;;;10.57;3.10;;;30.80;49.40;;;;;;4947985;29;20075;-62
2022/07/07 07:45:09;;;;;;;19.30;3.95;;;30.70;49.70;;;;;;4949065;29;20077;-62
2022/07/07 07:47:04;;;;;;;26.75;5.53;;;30.80;50.50;;;;;;4949677;28;20083;-62
2022/07/07 07:49:31;;;;;;;24.77;5.25;;;30.70;50.10;;;;;;4950204;28;20192;-62
2022/07/07 07:51:57;;;;;;;19.63;4.72;;;30.70;50.20;;;;;;4950503;28;20080;-62
2022/07/07 07:54:24;;;;;;;22.33;5.68;;;30.70;50.40;;;;;;4950016;29;20098;-61
2022/07/07 07:56:50;;;;;;;23.10;5.13;;;30.70;50.60;;;;;;4949815;29;21606;-62
2022/07/07 07:59:16;;;;;;;22.40;5.70;;;30.70;50.80;;;;;;4933331;29;20071;-64
2022/07/07 08:01:43;;;;;;;18.02;5.07;;;30.60;51.10;;;;;;4932206;29;20201;-61
2022/07/07 08:04:09;;;;;;;18.25;4.53;;;30.50;51.40;;;;;;4948400;28;20074;-62
2022/07/07 08:06:36;;;;;;;15.02;4.97;;;30.50;51.60;;;;;;4949638;29;20106;-62
2022/07/07 08:09:02;;;;;;;17.15;4.90;;;30.50;51.90;;;;;;4933833;29;20074;-63
2022/07/07 08:11:29;;;;;;;17.98;5.07;;;30.40;52.30;;;;;;4950238;29;20475;-61
2022/07/07 08:13:55;;;;;;;18.77;4.55;;;30.40;52.50;;;;;;4950036;28;20123;-62
2022/07/07 08:16:21;;;;;;;16.10;4.55;;;30.40;52.60;;;;;;4950135;28;20123;-64
2022/07/07 08:18:48;;;;;;;19.80;4.18;;;30.40;52.70;;;;;;4950019;28;20166;-64
2022/07/07 08:21:14;;;;;;;17.60;4.22;;;30.30;52.70;;;;;;4949662;28;20093;-65
2022/07/07 08:23:41;;;;;;;16.52;4.50;;;30.30;53.00;;;;;;4950229;28;20508;-63
2022/07/07 08:26:07;;;;;;;14.40;4.60;;;30.20;53.50;;;;;;4950356;28;20537;-61
2022/07/07 08:28:33;;;;;;;15.80;4.18;;;30.20;53.60;;;;;;4949681;28;20087;-61
2022/07/07 08:31:00;;;;;;;15.25;4.07;;;30.20;53.60;;;;;;4948337;29;20113;-63
2022/07/07 08:33:26;;;;;;;17.63;3.90;;;30.20;53.80;;;;;;4950459;29;20078;-63
2022/07/07 08:35:52;;;;;;;14.73;3.35;;;30.20;53.80;;;;;;4950744;28;20102;-62
2022/07/07 08:38:19;;;;;;;12.63;2.85;;;30.20;53.90;;;;;;4933921;29;20108;-62
2022/07/07 08:40:45;;;;;;;10.32;2.97;;;30.10;54.30;;;;;;4950828;29;20071;-63
2022/07/07 08:43:12;;;;;;;9.38;2.20;;;30.10;55.00;;;;;;4935044;29;20492;-61
2022/07/07 08:45:38;;;;;;;6.97;1.80;;;29.90;55.60;;;;;;4949576;29;20446;-61
2022/07/07 08:48:05;;;;;;;12.23;1.83;;;29.90;55.80;;;;;;4949808;28;20078;-62
2022/07/07 08:50:34;;;;;;;16.42;2.38;;;29.90;56.50;;;;;;4949625;28;20080;-65
2022/07/07 08:53:01;;;;;;;8.18;3.15;;;29.90;57.60;;;;;;4950391;29;20113;-62
2022/07/07 08:55:32;;;;;;;14.10;4.30;;;29.80;58.80;;;;;;4949834;28;20087;-64
2022/07/07 08:57:59;;;;;;;15.57;4.57;;;29.80;59.70;;;;;;4949970;28;20088;-62
2022/07/07 09:00:25;;;;;;;11.43;5.05;;;29.80;60.40;;;;;;4949148;29;20106;-62
2022/07/07 09:02:57;;;;;;;12.10;4.25;;;29.80;61.30;;;;;;4948472;29;20066;-62
2022/07/07 09:05:25;;;;;;;13.00;4.53;;;29.70;61.70;;;;;;4948432;29;20594;-63
2022/07/07 09:07:53;;;;;;;12.90;4.00;;;29.70;62.50;;;;;;4949842;28;20086;-62
2022/07/07 09:10:39;;;;;;;8.88;3.22;;;29.70;63.10;;;;;;4949028;29;20078;-63
2022/07/07 09:13:30;;;;;;;10.55;4.20;;;29.60;64.30;;;;;;4949883;28;20085;-62
2022/07/07 09:16:01;;;;;;;11.20;3.30;;;29.50;65.60;;;;;;4933092;29;20506;-61
2022/07/07 09:18:36;;;;;;;6.57;2.90;;;29.50;67.00;;;;;;4951248;29;20099;-59
2022/07/07 09:21:05;;;;;;;5.93;2.75;;;29.40;68.20;;;;;;4950217;29;20121;-57
2022/07/07 09:23:32;;;;;;;10.82;3.30;;;29.50;68.90;;;;;;4950079;29;20161;-62
2022/07/07 09:26:00;;;;;;;11.68;2.95;;;29.60;68.80;;;;;;4950181;28;20072;-60
2022/07/07 09:28:28;;;;;;;11.40;2.78;;;29.90;69.10;;;;;;4950058;29;20080;-62
2022/07/07 09:30:54;;;;;;;10.93;2.63;;;30.10;68.10;;;;;;4949128;29;20417;-59
2022/07/07 09:33:25;;;;;;;12.00;2.22;;;30.30;67.40;;;;;;4949386;28;20083;-57
2022/07/07 09:38:41;;;;;;;5.07;1.92;;;30.40;66.60;;;;;;4950252;29;20121;-63
2022/07/07 09:41:12;;;;;;;8.43;2.80;;;30.50;65.80;;;;;;4953094;28;20085;-59
2022/07/07 09:43:51;;;;;;;10.55;2.60;;;30.20;67.40;;;;;;4953073;28;20078;-59
2022/07/07 09:46:19;;;;;;;9.48;2.47;;;30.20;68.60;;;;;;4951944;29;20066;-60
2022/07/07 09:48:53;;;;;;;6.93;2.08;;;30.30;67.80;;;;;;4953307;28;20091;-58
2022/07/07 09:51:24;;;;;;;6.38;2.10;;;30.40;67.50;;;;;;4952265;29;20076;-61
2022/07/07 09:54:01;;;;;;;12.63;2.75;;;30.30;66.90;;;;;;4950715;29;20098;-58
2022/07/07 09:56:30;;;;;;;11.40;2.28;;;30.10;67.00;;;;;;4952431;28;20209;-58
2022/07/07 09:58:57;;;;;;;11.25;2.83;;;30.10;66.80;;;;;;4936133;29;20129;-58
2022/07/07 10:01:30;;;;;;;12.40;3.08;;;29.80;67.30;;;;;;4920937;29;21141;-62
2022/07/07 10:04:00;;;;;;;17.80;3.28;;;29.90;67.80;;;;;;4952390;29;20094;-64
2022/07/07 10:06:30;;;;;;;14.05;3.20;;;29.70;68.60;;;;;;4952720;29;20103;-64
2022/07/07 10:09:02;;;;;;;14.23;4.07;;;29.60;68.90;;;;;;4966974;28;20072;-59
2022/07/07 10:11:50;;;;;;;14.65;4.20;;;29.70;68.00;;;;;;4952922;28;20093;-58
2022/07/07 10:14:20;;;;;;;13.50;3.70;;;29.10;69.10;;;;;;4935153;29;20085;-60
2022/07/07 10:16:48;;;;;;;16.08;3.00;;;29.10;69.30;;;;;;4951969;28;20165;-58
2022/07/07 10:19:18;;;;;;;9.48;2.50;;;28.90;69.20;;;;;;4952019;29;20567;-63
2022/07/07 10:21:47;;;;;;;13.20;2.55;;;29.30;68.30;;;;;;4936131;29;20076;-59
2022/07/07 10:24:16;;;;;;;10.05;2.30;;;28.90;68.30;;;;;;4951436;28;20071;-59
2022/07/07 10:26:53;;;;;;;6.00;1.85;;;28.60;69.70;;;;;;4949844;29;20100;-60
2022/07/07 10:29:58;;;;;;;7.40;2.10;;;28.60;69.70;;;;;;4952228;29;20517;-60
2022/07/07 10:32:30;;;;;;;9.27;1.95;;;28.60;69.40;;;;;;4950936;29;20083;-58
2022/07/07 10:35:00;;;;;;;8.70;2.63;;;28.60;68.60;;;;;;4951399;29;20087;-60
2022/07/07 10:37:27;;;;;;;6.07;2.15;;;28.70;67.40;;;;;;4950043;29;20092;-63
2022/07/07 10:39:56;;;;;;;8.90;2.00;;;28.50;68.10;;;;;;4952324;28;20078;-63
2022/07/07 10:42:35;;;;;;;9.57;2.60;;;28.60;68.00;;;;;;4936696;29;20106;-62
2022/07/07 10:45:03;;;;;;;7.25;1.98;;;28.60;68.50;;;;;;4952212;28;20074;-59
2022/07/07 10:47:30;;;;;;;11.82;2.28;;;28.50;68.10;;;;;;4950749;29;20085;-59
2022/07/07 10:49:58;;;;;;;10.77;2.60;;;28.20;67.10;;;;;;4952452;28;20278;-59
2022/07/07 10:52:42;;;;;;;14.48;2.40;;;27.90;68.00;;;;;;4949409;28;20079;-60
2022/07/07 10:55:08;;;;;;;12.93;2.50;;;27.90;69.40;;;;;;4949287;29;20111;-58
2022/07/07 10:57:45;;;;;;;8.95;2.63;;;27.90;67.90;;;;;;4950799;29;20094;-63
2022/07/07 11:00:26;;;;;;;10.65;2.83;;;28.00;67.70;;;;;;4950457;29;20138;-64
2022/07/07 11:03:09;;;;;;;11.85;2.65;;;28.00;67.70;;;;;;4950392;29;20071;-57
2022/07/07 11:05:36;;;;;;;11.18;3.00;;;27.80;67.00;;;;;;4950625;29;20491;-58
2022/07/07 11:08:11;;;;;;;8.30;2.67;;;27.80;66.70;;;;;;4950975;29;20076;-58
2022/07/07 11:10:37;;;;;;;12.52;2.60;;;27.90;66.30;;;;;;4952848;28;20079;-59
2022/07/07 11:13:32;;;;;;;8.50;2.53;;;27.80;67.20;;;;;;4951311;28;20078;-59
2022/07/07 11:16:11;;;;;;;13.23;3.08;;;28.10;66.30;;;;;;4950444;29;20080;-62
2022/07/07 11:18:38;;;;;;;8.50;2.45;;;28.10;66.10;;;;;;4951003;29;20095;-58
2022/07/07 11:21:06;;;;;;;8.95;2.85;;;28.20;65.60;;;;;;4934025;29;20095;-56
2022/07/07 11:23:48;;;;;;;11.63;3.58;;;28.20;65.00;;;;;;4935454;29;20137;-59
2022/07/07 11:26:20;;;;;;;11.52;2.97;;;27.90;64.10;;;;;;4949396;28;20095;-59
2022/07/07 11:28:47;;;;;;;9.88;3.22;;;28.00;63.60;;;;;;4951816;29;20432;-56
2022/07/07 11:31:14;;;;;;;15.43;3.70;;;28.00;64.60;;;;;;4951422;28;20110;-56
2022/07/07 11:33:40;;;;;;;14.45;3.63;;;27.70;62.50;;;;;;4950663;28;20534;-58
2022/07/07 11:36:16;;;;;;;10.40;3.33;;;27.60;61.50;;;;;;4951008;28;20099;-63
2022/07/07 11:38:43;;;;;;;9.93;3.67;;;27.80;61.60;;;;;;4950452;28;20098;-55
2022/07/07 11:41:10;;;;;;;16.55;3.63;;;27.70;61.80;;;;;;4952017;28;20442;-58
2022/07/07 11:43:36;;;;;;;8.82;2.67;;;27.70;60.20;;;;;;4949166;29;20087;-56
2022/07/07 11:46:03;;;;;;;6.43;2.67;;;27.80;59.20;;;;;;4950656;29;20079;-59
2022/07/07 11:48:38;;;;;;;10.18;2.80;;;27.50;57.70;;;;;;4934326;29;20488;-59
2022/07/07 11:51:06;;;;;;;8.98;3.28;;;27.40;56.60;;;;;;4918747;29;20091;-57
2022/07/07 11:53:33;;;;;;;11.27;3.35;;;27.40;56.40;;;;;;4950003;28;20080;-55
2022/07/07 11:56:00;;;;;;;12.20;3.05;;;27.40;56.10;;;;;;4934680;29;20095;-58
2022/07/07 11:58:29;;;;;;;10.40;3.30;;;27.30;55.90;;;;;;4950548;29;20186;-59
2022/07/07 12:00:56;;;;;;;10.20;3.17;;;27.30;55.30;;;;;;4950016;29;20546;-58
2022/07/07 12:03:34;;;;;;;16.85;3.70;;;27.30;54.80;;;;;;4949347;28;20080;-64
2022/07/07 12:06:02;;;;;;;8.32;3.38;;;27.40;52.00;;;;;;4950138;28;20073;-57
2022/07/07 12:08:34;;;;;;;12.98;3.58;;;27.30;51.50;;;;;;4949557;28;20245;-56
2022/07/07 12:11:01;;;;;;;12.40;3.42;;;27.30;51.30;;;;;;4949476;28;20082;-62
2022/07/07 12:13:28;;;;;;;11.27;4.05;;;27.30;51.30;;;;;;4950156;29;20174;-62
2022/07/07 12:15:54;;;;;;;9.43;4.13;;;27.30;51.10;;;;;;4934761;29;20072;-61
2022/07/07 12:18:31;;;;;;;10.00;3.42;;;27.10;51.80;;;;;;4934223;29;20827;-63
2022/07/07 12:21:08;;;;;;;16.02;3.40;;;27.30;51.20;;;;;;4950246;28;20140;-59
2022/07/07 12:23:37;;;;;;;14.25;3.53;;;27.30;51.70;;;;;;4950227;29;20079;-57
2022/07/07 12:26:16;;;;;;;8.57;2.92;;;27.00;51.00;;;;;;4964464;28;20079;-63
2022/07/07 12:28:44;;;;;;;13.35;3.80;;;26.90;51.20;;;;;;4950767;29;20114;-57
2022/07/07 12:31:20;;;;;;;13.98;3.33;;;27.00;50.80;;;;;;4950000;28;20087;-62
2022/07/07 12:33:47;;;;;;;11.38;3.35;;;26.90;50.60;;;;;;4949105;29;20088;-58
2022/07/07 12:36:18;;;;;;;11.35;3.28;;;26.90;50.80;;;;;;4950743;28;20146;-62
2022/07/07 12:38:49;;;;;;;11.88;3.85;;;26.90;50.80;;;;;;4949334;29;20098;-58
2022/07/07 12:41:29;;;;;;;16.05;3.00;;;26.70;51.30;;;;;;4951465;28;20078;-57
2022/07/07 12:44:21;;;;;;;12.90;3.90;;;26.80;52.50;;;;;;4950030;29;20099;-60
2022/07/07 12:46:48;;;;;;;16.05;3.78;;;26.70;51.70;;;;;;4948506;29;20092;-59